sensor_id;sensor_type;location;lat;lon;timestamp;pressure;altitude;pressure_sealevel;temperature;humidity
6030;BME280;3043;42.682;23.376;2023-02-15T00:01:46;96111.91;;;2.28;100.00
6030;BME280;3043;42.682;23.376;2023-02-15T00:04:17;96115.47;;;2.36;100.00
6030;BME280;3043;42.682;23.376;2023-02-15T00:06:43;96111.28;;;2.38;100.00
6030;BME280;3043;42.682;23.376;2023-02-15T00:09:09;96124.19;;;2.44;100.00
6030;BME280;3043;42.682;23.376;2023-02-15T00:11:35;96120.72;;;2.42;100.00
6030;BME280;3043;42.682;23.376;2023-02-15T00:14:21;96124.97;;;2.40;100.00
6030;BME280;3043;42.682;23.376;2023-02-15T00:16:48;96124.41;;;2.53;100.00
6030;BME280;3043;42.682;23.376;2023-02-15T00:19:15;96124.94;;;2.38;100.00
6030;BME280;3043;42.682;23.376;2023-02-15T00:21:42;96130.00;;;2.37;100.00
6030;BME280;3043;42.682;23.376;2023-02-15T00:24:11;96125.16;;;2.47;100.00
6030;BME280;3043;42.682;23.376;2023-02-15T00:26:38;96127.38;;;2.34;100.00
6030;BME280;3043;42.682;23.376;2023-02-15T00:29:05;96129.25;;;2.41;100.00
6030;BME280;3043;42.682;23.376;2023-02-15T00:31:31;96140.28;;;2.40;100.00
6030;BME280;3043;42.682;23.376;2023-02-15T00:34:12;96128.25;;;2.36;100.00
6030;BME280;3043;42.682;23.376;2023-02-15T00:36:38;96124.06;;;2.38;100.00
6030;BME280;3043;42.682;23.376;2023-02-15T00:39:04;96129.16;;;2.38;100.00
6030;BME280;3043;42.682;23.376;2023-02-15T00:41:31;96132.59;;;2.38;100.00
6030;BME280;3043;42.682;23.376;2023-02-15T00:43:56;96132.41;;;2.31;100.00
6030;BME280;3043;42.682;23.376;2023-02-15T00:46:22;96131.28;;;2.20;100.00
6030;BME280;3043;42.682;23.376;2023-02-15T00:48:47;96132.56;;;2.37;100.00
6030;BME280;3043;42.682;23.376;2023-02-15T00:51:13;96133.13;;;2.27;100.00
6030;BME280;3043;42.682;23.376;2023-02-15T00:53:38;96127.16;;;2.25;100.00
6030;BME280;3043;42.682;23.376;2023-02-15T00:56:04;96122.13;;;2.28;100.00
6030;BME280;3043;42.682;23.376;2023-02-15T00:58:29;96126.00;;;2.14;100.00
6030;BME280;3043;42.682;23.376;2023-02-15T01:00:55;96126.19;;;2.21;100.00
6030;BME280;3043;42.682;23.376;2023-02-15T01:03:27;96129.59;;;2.20;100.00
6030;BME280;3043;42.682;23.376;2023-02-15T01:05:52;96118.28;;;2.11;100.00
6030;BME280;3043;42.682;23.376;2023-02-15T01:08:17;96114.81;;;2.09;100.00
6030;BME280;3043;42.682;23.376;2023-02-15T01:10:43;96120.66;;;2.05;100.00
6030;BME280;3043;42.682;23.376;2023-02-15T01:13:10;96116.72;;;2.16;100.00
6030;BME280;3043;42.682;23.376;2023-02-15T01:15:36;96116.72;;;2.16;100.00
6030;BME280;3043;42.682;23.376;2023-02-15T01:18:01;96121.75;;;2.13;100.00
6030;BME280;3043;42.682;23.376;2023-02-15T01:20:28;96114.50;;;1.97;100.00
6030;BME280;3043;42.682;23.376;2023-02-15T01:22:56;96112.22;;;2.07;100.00
6030;BME280;3043;42.682;23.376;2023-02-15T01:25:23;96109.38;;;1.97;100.00
6030;BME280;3043;42.682;23.376;2023-02-15T01:27:49;96099.91;;;1.91;100.00
6030;BME280;3043;42.682;23.376;2023-02-15T01:30:15;96106.06;;;2.01;100.00
6030;BME280;3043;42.682;23.376;2023-02-15T01:32:41;96101.22;;;2.10;100.00
6030;BME280;3043;42.682;23.376;2023-02-15T01:35:08;96099.59;;;2.13;100.00
6030;BME280;3043;42.682;23.376;2023-02-15T01:37:34;96102.72;;;2.02;100.00
6030;BME280;3043;42.682;23.376;2023-02-15T01:40:00;96101.06;;;2.04;100.00
6030;BME280;3043;42.682;23.376;2023-02-15T01:42:27;96101.84;;;2.01;100.00
6030;BME280;3043;42.682;23.376;2023-02-15T01:44:58;96095.63;;;1.92;100.00
6030;BME280;3043;42.682;23.376;2023-02-15T01:52:31;96096.78;;;2.03;100.00
6030;BME280;3043;42.682;23.376;2023-02-15T01:54:59;96092.88;;;2.17;100.00
6030;BME280;3043;42.682;23.376;2023-02-15T01:57:26;96086.84;;;2.13;100.00
6030;BME280;3043;42.682;23.376;2023-02-15T01:59:56;96085.72;;;2.04;100.00
6030;BME280;3043;42.682;23.376;2023-02-15T02:02:24;96096.91;;;2.07;100.00
6030;BME280;3043;42.682;23.376;2023-02-15T02:05:08;96089.03;;;2.00;100.00
6030;BME280;3043;42.682;23.376;2023-02-15T02:07:41;96084.09;;;2.06;100.00
6030;BME280;3043;42.682;23.376;2023-02-15T02:10:08;96085.25;;;1.85;100.00
6030;BME280;3043;42.682;23.376;2023-02-15T02:12:36;96096.66;;;1.98;100.00
6030;BME280;3043;42.682;23.376;2023-02-15T02:15:04;96091.59;;;2.00;100.00
6030;BME280;3043;42.682;23.376;2023-02-15T02:20:43;96102.56;;;1.96;100.00
6030;BME280;3043;42.682;23.376;2023-02-15T02:23:39;96107.50;;;1.90;100.00
6030;BME280;3043;42.682;23.376;2023-02-15T02:34:31;96105.91;;;1.95;100.00
6030;BME280;3043;42.682;23.376;2023-02-15T02:37:12;96105.75;;;1.88;100.00
6030;BME280;3043;42.682;23.376;2023-02-15T02:40:11;96101.38;;;2.16;100.00
6030;BME280;3043;42.682;23.376;2023-02-15T02:42:41;96101.97;;;2.06;100.00
6030;BME280;3043;42.682;23.376;2023-02-15T02:45:24;96100.97;;;2.01;100.00
6030;BME280;3043;42.682;23.376;2023-02-15T02:48:03;96097.78;;;2.08;100.00
6030;BME280;3043;42.682;23.376;2023-02-15T02:50:31;96094.06;;;1.97;100.00
6030;BME280;3043;42.682;23.376;2023-02-15T02:52:58;96102.66;;;1.99;100.00
6030;BME280;3043;42.682;23.376;2023-02-15T02:55:35;96103.97;;;1.84;100.00
6030;BME280;3043;42.682;23.376;2023-02-15T03:00:49;96107.97;;;2.08;100.00
6030;BME280;3043;42.682;23.376;2023-02-15T03:03:23;96110.56;;;2.09;100.00
6030;BME280;3043;42.682;23.376;2023-02-15T03:05:53;96113.84;;;2.05;100.00
6030;BME280;3043;42.682;23.376;2023-02-15T03:08:23;96115.38;;;1.97;100.00
6030;BME280;3043;42.682;23.376;2023-02-15T03:10:54;96116.72;;;2.16;100.00
6030;BME280;3043;42.682;23.376;2023-02-15T03:13:21;96123.34;;;2.09;100.00
6030;BME280;3043;42.682;23.376;2023-02-15T03:15:48;96121.59;;;2.07;100.00
6030;BME280;3043;42.682;23.376;2023-02-15T03:18:41;96119.31;;;2.17;100.00
6030;BME280;3043;42.682;23.376;2023-02-15T03:21:09;96118.13;;;2.05;100.00
6030;BME280;3043;42.682;23.376;2023-02-15T03:23:50;96124.03;;;2.04;100.00
6030;BME280;3043;42.682;23.376;2023-02-15T03:26:18;96124.06;;;2.05;100.00
6030;BME280;3043;42.682;23.376;2023-02-15T03:28:46;96121.91;;;2.19;100.00
6030;BME280;3043;42.682;23.376;2023-02-15T03:31:14;96121.25;;;2.27;100.00
6030;BME280;3043;42.682;23.376;2023-02-15T03:33:47;96115.09;;;2.21;100.00
6030;BME280;3043;42.682;23.376;2023-02-15T03:36:22;96117.22;;;2.37;100.00
6030;BME280;3043;42.682;23.376;2023-02-15T03:41:27;96118.66;;;2.26;100.00
6030;BME280;3043;42.682;23.376;2023-02-15T03:44:05;96118.56;;;2.23;100.00
6030;BME280;3043;42.682;23.376;2023-02-15T03:46:53;96113.53;;;2.26;100.00
6030;BME280;3043;42.682;23.376;2023-02-15T03:49:29;96111.81;;;2.25;100.00
6030;BME280;3043;42.682;23.376;2023-02-15T03:51:58;96115.09;;;2.21;100.00
6030;BME280;3043;42.682;23.376;2023-02-15T03:54:28;96120.28;;;2.24;100.00
6030;BME280;3043;42.682;23.376;2023-02-15T04:00:26;96112.19;;;2.40;100.00
6030;BME280;3043;42.682;23.376;2023-02-15T04:05:42;96119.81;;;2.38;100.00
6030;BME280;3043;42.682;23.376;2023-02-15T04:08:08;96125.16;;;2.47;100.00
6030;BME280;3043;42.682;23.376;2023-02-15T04:10:34;96129.13;;;2.70;100.00
6030;BME280;3043;42.682;23.376;2023-02-15T04:13:31;96129.28;;;2.78;100.00
6030;BME280;3043;42.682;23.376;2023-02-15T04:15:57;96137.84;;;2.80;100.00
6030;BME280;3043;42.682;23.376;2023-02-15T04:18:36;96133.16;;;2.61;100.00
6030;BME280;3043;42.682;23.376;2023-02-15T04:21:22;96140.03;;;2.65;100.00
6030;BME280;3043;42.682;23.376;2023-02-15T04:24:06;96144.28;;;2.63;100.00
6030;BME280;3043;42.682;23.376;2023-02-15T04:26:51;96156.31;;;2.68;100.00
6030;BME280;3043;42.682;23.376;2023-02-15T04:29:20;96159.94;;;2.76;100.00
6030;BME280;3043;42.682;23.376;2023-02-15T04:31:46;96167.78;;;2.84;100.00
6030;BME280;3043;42.682;23.376;2023-02-15T04:34:11;96156.09;;;2.95;100.00
6030;BME280;3043;42.682;23.376;2023-02-15T04:36:37;96169.25;;;3.10;100.00
6030;BME280;3043;42.682;23.376;2023-02-15T04:39:03;96168.00;;;2.93;100.00
6030;BME280;3043;42.682;23.376;2023-02-15T04:41:29;96170.72;;;3.00;100.00
6030;BME280;3043;42.682;23.376;2023-02-15T04:43:54;96170.06;;;3.09;100.00
6030;BME280;3043;42.682;23.376;2023-02-15T04:46:20;96165.88;;;3.12;100.00
6030;BME280;3043;42.682;23.376;2023-02-15T04:48:45;96168.41;;;3.11;100.00
6030;BME280;3043;42.682;23.376;2023-02-15T04:51:11;96165.59;;;3.39;100.00
6030;BME280;3043;42.682;23.376;2023-02-15T04:53:36;96169.78;;;3.34;100.00
6030;BME280;3043;42.682;23.376;2023-02-15T04:56:02;96184.09;;;3.26;100.00
6030;BME280;3043;42.682;23.376;2023-02-15T04:58:28;96177.44;;;3.34;100.00
6030;BME280;3043;42.682;23.376;2023-02-15T05:00:57;96180.56;;;3.21;100.00
6030;BME280;3043;42.682;23.376;2023-02-15T05:03:23;96176.81;;;3.44;100.00
6030;BME280;3043;42.682;23.376;2023-02-15T05:05:50;96180.88;;;3.36;100.00
6030;BME280;3043;42.682;23.376;2023-02-15T05:08:16;96177.44;;;3.34;100.00
6030;BME280;3043;42.682;23.376;2023-02-15T05:10:42;96180.81;;;3.33;100.00
6030;BME280;3043;42.682;23.376;2023-02-15T05:13:07;96189.28;;;3.29;100.00
6030;BME280;3043;42.682;23.376;2023-02-15T05:15:33;96193.72;;;3.37;100.00
6030;BME280;3043;42.682;23.376;2023-02-15T05:17:58;96194.47;;;3.32;100.00
6030;BME280;3043;42.682;23.376;2023-02-15T05:20:23;96191.06;;;3.33;100.00
6030;BME280;3043;42.682;23.376;2023-02-15T05:22:53;96187.28;;;3.16;100.00
6030;BME280;3043;42.682;23.376;2023-02-15T05:25:18;96203.94;;;3.37;100.00
6030;BME280;3043;42.682;23.376;2023-02-15T05:28:03;96212.47;;;3.36;100.00
6030;BME280;3043;42.682;23.376;2023-02-15T05:30:51;96203.75;;;3.28;100.00
6030;BME280;3043;42.682;23.376;2023-02-15T05:33:23;96215.94;;;3.38;100.00
6030;BME280;3043;42.682;23.376;2023-02-15T05:35:49;96210.13;;;3.47;100.00
6030;BME280;3043;42.682;23.376;2023-02-15T05:38:14;96206.59;;;3.42;100.00
6030;BME280;3043;42.682;23.376;2023-02-15T05:40:40;96208.91;;;3.30;100.00
6030;BME280;3043;42.682;23.376;2023-02-15T05:43:05;96211.91;;;3.51;100.00
6030;BME280;3043;42.682;23.376;2023-02-15T05:45:30;96210.06;;;3.44;100.00
6030;BME280;3043;42.682;23.376;2023-02-15T05:47:56;96207.16;;;3.66;100.00
6030;BME280;3043;42.682;23.376;2023-02-15T05:50:23;96203.88;;;3.73;100.00
6030;BME280;3043;42.682;23.376;2023-02-15T05:52:49;96206.47;;;3.75;100.00
6030;BME280;3043;42.682;23.376;2023-02-15T05:55:14;96210.78;;;3.77;100.00
6030;BME280;3043;42.682;23.376;2023-02-15T05:57:40;96221.91;;;4.19;100.00
6030;BME280;3043;42.682;23.376;2023-02-15T06:00:06;96217.00;;;4.31;100.00
6030;BME280;3043;42.682;23.376;2023-02-15T06:02:35;96222.69;;;4.61;100.00
6030;BME280;3043;42.682;23.376;2023-02-15T06:05:01;96220.88;;;5.06;100.00
6030;BME280;3043;42.682;23.376;2023-02-15T06:07:26;96223.81;;;5.30;100.00
6030;BME280;3043;42.682;23.376;2023-02-15T06:09:52;96227.03;;;5.17;100.00
6030;BME280;3043;42.682;23.376;2023-02-15T06:12:17;96223.91;;;5.36;100.00
6030;BME280;3043;42.682;23.376;2023-02-15T06:14:43;96225.38;;;5.19;100.00
6030;BME280;3043;42.682;23.376;2023-02-15T06:17:08;96224.75;;;4.83;100.00
6030;BME280;3043;42.682;23.376;2023-02-15T06:19:33;96235.13;;;4.89;100.00
6030;BME280;3043;42.682;23.376;2023-02-15T06:21:59;96231.09;;;4.56;100.00
6030;BME280;3043;42.682;23.376;2023-02-15T06:24:24;96236.03;;;4.45;100.00
6030;BME280;3043;42.682;23.376;2023-02-15T06:26:50;96239.63;;;4.55;100.00
6030;BME280;3043;42.682;23.376;2023-02-15T06:29:16;96248.22;;;4.55;100.00
6030;BME280;3043;42.682;23.376;2023-02-15T06:31:41;96232.38;;;4.31;100.00
6030;BME280;3043;42.682;23.376;2023-02-15T06:34:06;96232.44;;;4.34;100.00
6030;BME280;3043;42.682;23.376;2023-02-15T06:36:32;96239.44;;;4.44;100.00
6030;BME280;3043;42.682;23.376;2023-02-15T06:38:57;96243.66;;;4.42;100.00
6030;BME280;3043;42.682;23.376;2023-02-15T06:41:23;96232.44;;;4.34;100.00
6030;BME280;3043;42.682;23.376;2023-02-15T06:43:49;96234.59;;;4.59;100.00
6030;BME280;3043;42.682;23.376;2023-02-15T06:46:14;96239.38;;;4.41;100.00
6030;BME280;3043;42.682;23.376;2023-02-15T06:48:40;96237.72;;;4.43;100.00
6030;BME280;3043;42.682;23.376;2023-02-15T06:51:06;96239.00;;;4.66;100.00
6030;BME280;3043;42.682;23.376;2023-02-15T06:53:31;96227.63;;;4.52;100.00
6030;BME280;3043;42.682;23.376;2023-02-15T06:56:04;96223.69;;;4.69;100.00
6030;BME280;3043;42.682;23.376;2023-02-15T06:58:39;96229.72;;;4.74;100.00
6030;BME280;3043;42.682;23.376;2023-02-15T07:01:05;96232.31;;;4.76;100.00
6030;BME280;3043;42.682;23.376;2023-02-15T07:03:31;96227.47;;;4.92;100.00
6030;BME280;3043;42.682;23.376;2023-02-15T07:05:58;96224.66;;;4.77;100.00
6030;BME280;3043;42.682;23.376;2023-02-15T07:08:25;96230.22;;;5.04;100.00
6030;BME280;3043;42.682;23.376;2023-02-15T07:10:52;96228.81;;;5.21;100.00
6030;BME280;3043;42.682;23.376;2023-02-15T07:13:18;96230.63;;;5.28;100.00
6030;BME280;3043;42.682;23.376;2023-02-15T07:15:45;96234.06;;;5.30;100.00
6030;BME280;3043;42.682;23.376;2023-02-15T07:18:11;96239.16;;;5.27;100.00
6030;BME280;3043;42.682;23.376;2023-02-15T07:20:37;96241.44;;;5.65;100.00
6030;BME280;3043;42.682;23.376;2023-02-15T07:23:04;96254.94;;;5.51;100.00
6030;BME280;3043;42.682;23.376;2023-02-15T07:25:29;96251.88;;;5.77;100.00
6030;BME280;3043;42.682;23.376;2023-02-15T07:27:59;96249.84;;;5.54;100.00
6030;BME280;3043;42.682;23.376;2023-02-15T07:30:25;96239.88;;;5.76;100.00
6030;BME280;3043;42.682;23.376;2023-02-15T07:32:50;96234.16;;;5.95;100.00
6030;BME280;3043;42.682;23.376;2023-02-15T07:35:34;96237.44;;;5.82;100.00
6030;BME280;3043;42.682;23.376;2023-02-15T07:38:00;96243.03;;;5.57;100.00
6030;BME280;3043;42.682;23.376;2023-02-15T07:40:26;96237.75;;;5.47;100.00
6030;BME280;3043;42.682;23.376;2023-02-15T07:42:52;96225.94;;;5.59;100.00
6030;BME280;3043;42.682;23.376;2023-02-15T07:45:20;96230.94;;;6.11;100.00
6030;BME280;3043;42.682;23.376;2023-02-15T07:47:45;96234.00;;;5.83;100.00
6030;BME280;3043;42.682;23.376;2023-02-15T07:50:11;96229.19;;;6.08;100.00
6030;BME280;3043;42.682;23.376;2023-02-15T07:52:36;96237.31;;;6.43;100.00
6030;BME280;3043;42.682;23.376;2023-02-15T07:55:02;96229.63;;;6.46;100.00
6030;BME280;3043;42.682;23.376;2023-02-15T07:57:28;96233.09;;;6.49;100.00
6030;BME280;3043;42.682;23.376;2023-02-15T07:59:53;96232.00;;;6.28;100.00
6030;BME280;3043;42.682;23.376;2023-02-15T08:02:18;96220.19;;;6.45;100.00
6030;BME280;3043;42.682;23.376;2023-02-15T08:04:44;96243.06;;;6.19;100.00
6030;BME280;3043;42.682;23.376;2023-02-15T08:07:09;96235.47;;;6.30;100.00
6030;BME280;3043;42.682;23.376;2023-02-15T08:09:35;96238.13;;;6.37;100.00
6030;BME280;3043;42.682;23.376;2023-02-15T08:12:00;96234.91;;;6.58;100.00
6030;BME280;3043;42.682;23.376;2023-02-15T08:14:27;96234.53;;;7.07;100.00
6030;BME280;3043;42.682;23.376;2023-02-15T08:16:54;96237.94;;;7.06;100.00
6030;BME280;3043;42.682;23.376;2023-02-15T08:19:31;96241.81;;;6.60;100.00
6030;BME280;3043;42.682;23.376;2023-02-15T08:22:03;96233.25;;;6.63;100.00
6030;BME280;3043;42.682;23.376;2023-02-15T08:24:38;96236.63;;;6.57;100.00
6030;BME280;3043;42.682;23.376;2023-02-15T08:27:04;96229.72;;;6.55;100.00
6030;BME280;3043;42.682;23.376;2023-02-15T08:29:31;96238.28;;;6.52;100.00
6030;BME280;3043;42.682;23.376;2023-02-15T08:31:59;96235.53;;;6.36;100.00
6030;BME280;3043;42.682;23.376;2023-02-15T08:34:28;96243.97;;;6.23;100.00
6030;BME280;3043;42.682;23.376;2023-02-15T08:36:54;96245.59;;;6.18;100.00
6030;BME280;3043;42.682;23.376;2023-02-15T08:39:20;96240.38;;;6.12;100.00
6030;BME280;3043;42.682;23.376;2023-02-15T08:41:47;96238.19;;;6.43;100.00
6030;BME280;3043;42.682;23.376;2023-02-15T08:44:15;96237.84;;;6.94;100.00
6030;BME280;3043;42.682;23.376;2023-02-15T08:46:42;96236.53;;;7.41;100.00
6030;BME280;3043;42.682;23.376;2023-02-15T08:49:12;96251.97;;;7.38;100.00
6030;BME280;3043;42.682;23.376;2023-02-15T08:51:38;96248.53;;;7.42;100.00
6030;BME280;3043;42.682;23.376;2023-02-15T08:54:07;96253.66;;;7.39;100.00
6030;BME280;3043;42.682;23.376;2023-02-15T08:56:36;96253.78;;;7.57;100.00
6030;BME280;3043;42.682;23.376;2023-02-15T08:59:02;96243.50;;;7.57;100.00
6030;BME280;3043;42.682;23.376;2023-02-15T09:01:29;96246.91;;;7.55;100.00
6030;BME280;3043;42.682;23.376;2023-02-15T09:04:14;96247.78;;;7.58;100.00
6030;BME280;3043;42.682;23.376;2023-02-15T09:06:41;96249.31;;;7.28;100.00
6030;BME280;3043;42.682;23.376;2023-02-15T09:09:10;96250.16;;;7.31;100.00
6030;BME280;3043;42.682;23.376;2023-02-15T09:11:39;96256.13;;;7.24;100.00
6030;BME280;3043;42.682;23.376;2023-02-15T09:14:07;96246.84;;;7.43;100.00
6030;BME280;3043;42.682;23.376;2023-02-15T09:16:35;96248.22;;;7.03;100.00
6030;BME280;3043;42.682;23.376;2023-02-15T09:19:02;96237.94;;;7.03;100.00
6030;BME280;3043;42.682;23.376;2023-02-15T09:21:30;96247.28;;;6.95;100.00
6030;BME280;3043;42.682;23.376;2023-02-15T09:24:02;96243.44;;;7.50;100.00
6030;BME280;3043;42.682;23.376;2023-02-15T09:26:29;96248.66;;;7.57;100.00
6030;BME280;3043;42.682;23.376;2023-02-15T09:28:57;96257.34;;;7.71;100.00
6030;BME280;3043;42.682;23.376;2023-02-15T09:31:29;96252.19;;;7.74;100.00
6030;BME280;3043;42.682;23.376;2023-02-15T09:33:55;96242.75;;;7.70;100.00
6030;BME280;3043;42.682;23.376;2023-02-15T09:36:27;96236.69;;;7.68;100.00
6030;BME280;3043;42.682;23.376;2023-02-15T09:52:14;96242.78;;;7.79;100.00
6030;BME280;3043;42.682;23.376;2023-02-15T09:57:37;96245.31;;;7.70;100.00
6030;BME280;3043;42.682;23.376;2023-02-15T10:00:20;96234.34;;;8.09;100.00
6030;BME280;3043;42.682;23.376;2023-02-15T10:03:00;96230.09;;;8.21;100.00
6030;BME280;3043;42.682;23.376;2023-02-15T10:19:39;96220.00;;;8.93;100.00
6030;BME280;3043;42.682;23.376;2023-02-15T10:25:43;96214.81;;;8.80;100.00
6030;BME280;3043;42.682;23.376;2023-02-15T10:28:18;96218.22;;;8.50;100.00
6030;BME280;3043;42.682;23.376;2023-02-15T10:30:49;96216.50;;;8.64;100.00
6030;BME280;3043;42.682;23.376;2023-02-15T10:33:44;96210.44;;;8.46;100.00
6030;BME280;3043;42.682;23.376;2023-02-15T10:41:50;96200.13;;;8.47;100.00
6030;BME280;3043;42.682;23.376;2023-02-15T10:44:31;96190.75;;;8.76;100.00
6030;BME280;3043;42.682;23.376;2023-02-15T10:55:50;96195.91;;;9.34;96.85
6030;BME280;3043;42.682;23.376;2023-02-15T10:58:29;96186.25;;;10.17;92.23
6030;BME280;3043;42.682;23.376;2023-02-15T11:01:53;96179.91;;;10.75;85.94
6030;BME280;3043;42.682;23.376;2023-02-15T11:06:58;96181.97;;;10.05;86.58
6030;BME280;3043;42.682;23.376;2023-02-15T11:09:32;96192.22;;;10.37;85.91
6030;BME280;3043;42.682;23.376;2023-02-15T11:12:00;96173.94;;;10.64;83.69
6030;BME280;3043;42.682;23.376;2023-02-15T11:14:45;96177.16;;;10.98;79.08
6030;BME280;3043;42.682;23.376;2023-02-15T11:17:17;96183.19;;;11.01;77.55
6030;BME280;3043;42.682;23.376;2023-02-15T11:22:35;96183.31;;;10.86;77.62
6030;BME280;3043;42.682;23.376;2023-02-15T11:25:01;96181.94;;;10.19;81.10
6030;BME280;3043;42.682;23.376;2023-02-15T11:27:31;96177.53;;;10.42;80.77
6030;BME280;3043;42.682;23.376;2023-02-15T11:30:01;96164.56;;;10.45;81.03
6030;BME280;3043;42.682;23.376;2023-02-15T11:32:31;96167.91;;;10.59;80.22
6030;BME280;3043;42.682;23.376;2023-02-15T11:40:25;96169.94;;;9.91;84.09
6030;BME280;3043;42.682;23.376;2023-02-15T11:42:55;96170.84;;;9.75;85.50
6030;BME280;3043;42.682;23.376;2023-02-15T11:45:32;96176.03;;;9.70;87.15
6030;BME280;3043;42.682;23.376;2023-02-15T11:48:00;96161.38;;;9.80;87.69
6030;BME280;3043;42.682;23.376;2023-02-15T11:50:31;96154.47;;;9.76;87.48
6030;BME280;3043;42.682;23.376;2023-02-15T11:53:06;96145.97;;;9.17;89.31
6030;BME280;3043;42.682;23.376;2023-02-15T11:55:35;96149.44;;;9.03;92.85
6030;BME280;3043;42.682;23.376;2023-02-15T12:01:41;96141.69;;;8.99;92.47
6030;BME280;3043;42.682;23.376;2023-02-15T12:04:24;96127.03;;;8.99;93.98
6030;BME280;3043;42.682;23.376;2023-02-15T12:07:04;96126.19;;;9.14;91.89
6030;BME280;3043;42.682;23.376;2023-02-15T12:09:46;96128.75;;;9.19;92.41
6030;BME280;3043;42.682;23.376;2023-02-15T12:12:27;96113.25;;;9.31;92.51
6030;BME280;3043;42.682;23.376;2023-02-15T12:14:58;96122.69;;;9.29;92.10
6030;BME280;3043;42.682;23.376;2023-02-15T12:17:31;96130.47;;;9.23;92.03
6030;BME280;3043;42.682;23.376;2023-02-15T12:20:00;96117.53;;;9.33;90.95
6030;BME280;3043;42.682;23.376;2023-02-15T12:22:33;96120.06;;;9.50;89.30
6030;BME280;3043;42.682;23.376;2023-02-15T12:25:04;96112.31;;;9.47;90.03
6030;BME280;3043;42.682;23.376;2023-02-15T12:27:45;96116.66;;;9.42;91.48
6030;BME280;3043;42.682;23.376;2023-02-15T12:30:32;96114.91;;;9.47;90.80
6030;BME280;3043;42.682;23.376;2023-02-15T12:33:16;96106.38;;;9.30;90.55
6030;BME280;3043;42.682;23.376;2023-02-15T12:35:43;96108.09;;;9.25;91.56
6030;BME280;3043;42.682;23.376;2023-02-15T12:40:35;96108.94;;;9.08;92.76
6030;BME280;3043;42.682;23.376;2023-02-15T12:43:01;96096.03;;;9.15;91.53
6030;BME280;3043;42.682;23.376;2023-02-15T12:45:37;96099.47;;;9.23;91.77
6030;BME280;3043;42.682;23.376;2023-02-15T12:50:39;96097.69;;;9.43;90.78
6030;BME280;3043;42.682;23.376;2023-02-15T12:53:22;96092.53;;;9.40;88.57
6030;BME280;3043;42.682;23.376;2023-02-15T12:55:56;96088.28;;;9.15;89.64
6030;BME280;3043;42.682;23.376;2023-02-15T12:58:24;96077.97;;;8.98;90.54
6030;BME280;3043;42.682;23.376;2023-02-15T13:03:35;96075.41;;;8.90;93.39
6030;BME280;3043;42.682;23.376;2023-02-15T13:06:03;96070.22;;;8.99;93.98
6030;BME280;3043;42.682;23.376;2023-02-15T13:08:38;96079.72;;;8.96;94.68
6030;BME280;3043;42.682;23.376;2023-02-15T13:11:10;96077.97;;;9.04;92.96
6030;BME280;3043;42.682;23.376;2023-02-15T13:13:58;96071.09;;;9.04;91.86
6030;BME280;3043;42.682;23.376;2023-02-15T13:16:33;96071.09;;;9.04;91.47
6030;BME280;3043;42.682;23.376;2023-02-15T13:19:08;96071.09;;;8.91;92.44
6030;BME280;3043;42.682;23.376;2023-02-15T13:21:39;96079.75;;;8.78;93.64
6030;BME280;3043;42.682;23.376;2023-02-15T13:24:26;96070.25;;;8.81;93.87
6030;BME280;3043;42.682;23.376;2023-02-15T13:26:56;96071.97;;;8.88;94.68
6030;BME280;3043;42.682;23.376;2023-02-15T13:29:25;96071.97;;;8.91;94.84
6030;BME280;3043;42.682;23.376;2023-02-15T13:31:53;96074.56;;;8.96;95.08
6030;BME280;3043;42.682;23.376;2023-02-15T13:34:24;96073.69;;;8.83;96.24
6030;BME280;3043;42.682;23.376;2023-02-15T13:39:34;96078.88;;;8.50;99.36
6030;BME280;3043;42.682;23.376;2023-02-15T13:51:21;96088.31;;;8.48;100.00
6030;BME280;3043;42.682;23.376;2023-02-15T13:54:00;96089.19;;;8.53;100.00
6030;BME280;3043;42.682;23.376;2023-02-15T14:02:23;96085.63;;;8.00;100.00
6030;BME280;3043;42.682;23.376;2023-02-15T14:05:25;96088.16;;;7.84;100.00
6030;BME280;3043;42.682;23.376;2023-02-15T14:08:04;96088.97;;;7.75;100.00
6030;BME280;3043;42.682;23.376;2023-02-15T14:16:33;96108.59;;;7.46;100.00
6030;BME280;3043;42.682;23.376;2023-02-15T14:19:19;96104.28;;;7.41;100.00
6030;BME280;3043;42.682;23.376;2023-02-15T14:24:42;96118.75;;;7.20;100.00
6030;BME280;3043;42.682;23.376;2023-02-15T14:28:02;96121.47;;;7.45;100.00
6030;BME280;3043;42.682;23.376;2023-02-15T14:30:12;96119.78;;;7.48;100.00
6030;BME280;3043;42.682;23.376;2023-02-15T14:32:42;96115.50;;;7.49;100.00
6030;BME280;3043;42.682;23.376;2023-02-15T14:35:15;96123.25;;;7.50;100.00
6030;BME280;3043;42.682;23.376;2023-02-15T14:43:27;96115.50;;;7.50;100.00
6030;BME280;3043;42.682;23.376;2023-02-15T14:48:51;96110.97;;;7.07;100.00
6030;BME280;3043;42.682;23.376;2023-02-15T14:56:43;96105.69;;;6.89;100.00
6030;BME280;3043;42.682;23.376;2023-02-15T14:59:22;96113.25;;;6.69;100.00
6030;BME280;3043;42.682;23.376;2023-02-15T15:04:56;96112.38;;;6.69;100.00
6030;BME280;3043;42.682;23.376;2023-02-15T15:07:26;96114.06;;;6.67;100.00
6030;BME280;3043;42.682;23.376;2023-02-15T15:10:02;96110.66;;;6.65;100.00
6030;BME280;3043;42.682;23.376;2023-02-15T15:15:01;96117.19;;;6.30;100.00
6030;BME280;3043;42.682;23.376;2023-02-15T15:25:45;96126.50;;;6.19;100.00
6030;BME280;3043;42.682;23.376;2023-02-15T15:42:37;96135.66;;;5.96;100.00
6030;BME280;3043;42.682;23.376;2023-02-15T15:48:35;96139.69;;;5.74;100.00
6030;BME280;3043;42.682;23.376;2023-02-15T15:51:20;96148.06;;;5.61;100.00
6030;BME280;3043;42.682;23.376;2023-02-15T15:53:50;96136.28;;;5.77;100.00
6030;BME280;3043;42.682;23.376;2023-02-15T15:56:31;96137.06;;;5.70;100.00
6030;BME280;3043;42.682;23.376;2023-02-15T15:59:01;96147.84;;;5.44;100.00
6030;BME280;3043;42.682;23.376;2023-02-15T16:01:30;96141.91;;;5.48;100.00
6030;BME280;3043;42.682;23.376;2023-02-15T16:03:58;96134.72;;;5.23;100.00
6030;BME280;3043;42.682;23.376;2023-02-15T16:08:52;96141.50;;;5.18;100.00
6030;BME280;3043;42.682;23.376;2023-02-15T16:11:24;96145.16;;;5.35;100.00
6030;BME280;3043;42.682;23.376;2023-02-15T16:13:51;96149.63;;;5.50;100.00
6030;BME280;3043;42.682;23.376;2023-02-15T16:16:27;96152.38;;;5.64;100.00
6030;BME280;3043;42.682;23.376;2023-02-15T16:18:55;96155.63;;;5.50;100.00
6030;BME280;3043;42.682;23.376;2023-02-15T16:21:27;96150.41;;;5.44;100.00
6030;BME280;3043;42.682;23.376;2023-02-15T16:29:23;96155.03;;;5.70;100.00